Time;durP1;ratioP1;P1;durP2;ratioP2;P2;SDS_P1;SDS_P2;PMS_P1;PMS_P2;Temp;Humidity;BMP_temperature;BMP_pressure;BME280_temperature;BME280_humidity;BME280_pressure;Samples;Min_cycle;Max_cycle;Signal;HPM_P1;HPM_P2
2022/01/06 00:01:48;;;;;;;7.60;4.73;;;4.80;2.60;;;;;;6381638;27;20319;-57
2022/01/06 00:04:52;;;;;;;5.37;4.10;;;4.60;1.40;;;;;;6388572;27;20323;-57
2022/01/06 00:07:56;;;;;;;5.00;4.47;;;4.60;2.20;;;;;;6389893;27;20300;-58
2022/01/06 00:10:58;;;;;;;10.37;4.60;;;4.80;1.30;;;;;;6376835;27;20699;-57
2022/01/06 00:14:06;;;;;;;5.17;4.50;;;4.80;1.00;;;;;;6364277;27;20394;-58
2022/01/06 00:17:23;;;;;;;4.37;3.93;;;4.90;1.00;;;;;;6372060;27;20295;-57
2022/01/06 00:23:48;;;;;;;7.07;4.37;;;4.90;1.00;;;;;;6389989;27;20226;-57
2022/01/06 00:26:51;;;;;;;9.13;4.23;;;4.70;1.00;;;;;;6389399;27;20299;-58
2022/01/06 00:29:54;;;;;;;8.10;4.37;;;4.70;1.00;;;;;;6373143;27;20635;-57
2022/01/06 00:32:57;;;;;;;4.57;4.17;;;4.80;1.00;;;;;;6362572;27;20461;-57
2022/01/06 00:35:59;;;;;;;5.70;4.27;;;4.90;2.50;;;;;;6375837;27;20306;-56
2022/01/06 00:39:04;;;;;;;4.87;4.40;;;4.70;3.90;;;;;;6389501;27;20317;-57
2022/01/06 00:42:07;;;;;;;5.07;4.50;;;4.70;5.90;;;;;;6386452;27;20230;-56
2022/01/06 00:45:10;;;;;;;5.80;5.10;;;4.70;6.10;;;;;;6381103;27;20719;-59
2022/01/06 00:48:14;;;;;;;6.97;5.07;;;4.70;7.20;;;;;;6370950;27;20367;-57
2022/01/06 00:51:17;;;;;;;4.60;4.40;;;4.60;8.20;;;;;;6386490;27;20230;-57
2022/01/06 00:54:21;;;;;;;4.60;4.30;;;4.40;9.90;;;;;;6386078;27;20227;-57
2022/01/06 00:57:23;;;;;;;4.10;4.00;;;4.50;10.70;;;;;;6385052;27;20295;-57
2022/01/06 01:00:31;;;;;;;4.17;3.87;;;4.50;9.90;;;;;;6387243;27;20325;-57
2022/01/06 01:03:34;;;;;;;4.50;4.20;;;4.00;10.40;;;;;;6386632;27;20230;-57
2022/01/06 01:06:37;;;;;;;4.30;4.10;;;4.00;10.30;;;;;;6380352;27;20377;-57
2022/01/06 01:09:41;;;;;;;4.87;4.50;;;3.90;10.20;;;;;;6386427;27;20351;-57
2022/01/06 01:12:47;;;;;;;4.50;4.20;;;4.00;10.10;;;;;;6387347;27;20329;-57
2022/01/06 01:15:53;;;;;;;5.07;4.37;;;4.00;8.10;;;;;;6351265;27;20272;-57
2022/01/06 01:18:57;;;;;;;3.97;3.67;;;3.90;6.80;;;;;;6366689;27;20707;-57
2022/01/06 01:22:00;;;;;;;4.07;3.80;;;3.70;1.00;;;;;;6378869;27;20254;-56
2022/01/06 01:25:04;;;;;;;3.90;3.80;;;3.70;1.00;;;;;;6386467;27;20235;-57
2022/01/06 01:28:07;;;;;;;3.90;3.70;;;3.70;1.00;;;;;;6386182;27;20258;-56
2022/01/06 01:31:23;;;;;;;4.97;3.97;;;3.50;1.00;;;;;;6369823;27;20330;-57
2022/01/06 01:34:28;;;;;;;5.60;4.57;;;3.40;1.00;;;;;;6361528;27;20385;-57
2022/01/06 01:37:32;;;;;;;4.93;4.03;;;3.30;1.00;;;;;;6332195;27;20740;-57
2022/01/06 01:40:36;;;;;;;4.27;4.03;;;3.00;1.00;;;;;;6371508;27;20331;-56
2022/01/06 01:43:40;;;;;;;4.30;3.40;;;3.20;1.00;;;;;;6384723;27;20425;-57
2022/01/06 01:46:52;;;;;;;4.13;3.93;;;3.10;1.00;;;;;;6384039;27;20750;-57
2022/01/06 01:50:09;;;;;;;4.13;3.70;;;3.00;1.00;;;;;;6384680;27;20318;-59
2022/01/06 01:53:12;;;;;;;4.60;4.30;;;3.20;1.00;;;;;;6379507;27;20325;-60
2022/01/06 01:56:17;;;;;;;4.07;3.77;;;3.20;1.00;;;;;;6380025;27;20332;-57
2022/01/06 01:59:19;;;;;;;5.60;3.80;;;3.10;1.00;;;;;;6361169;27;20321;-56
2022/01/06 02:02:23;;;;;;;4.30;3.90;;;3.00;1.00;;;;;;6360698;27;20235;-56
2022/01/06 02:05:28;;;;;;;8.37;3.87;;;3.00;1.00;;;;;;6361400;27;20313;-57
2022/01/06 02:08:31;;;;;;;4.03;3.83;;;3.00;1.00;;;;;;6360260;27;20311;-56
2022/01/06 02:11:36;;;;;;;4.43;4.23;;;2.90;1.00;;;;;;6360458;27;20454;-56
2022/01/06 02:14:39;;;;;;;4.10;3.90;;;3.00;1.00;;;;;;6360184;27;20243;-56
2022/01/06 02:17:43;;;;;;;4.27;3.90;;;3.00;1.00;;;;;;6374094;27;20331;-56
2022/01/06 02:20:47;;;;;;;4.10;3.73;;;3.10;1.00;;;;;;6384842;27;20222;-56
2022/01/06 02:23:50;;;;;;;4.10;3.90;;;3.10;1.00;;;;;;6365110;27;20692;-57
2022/01/06 02:26:53;;;;;;;6.53;4.30;;;3.10;1.00;;;;;;6384729;27;20403;-57
2022/01/06 02:29:56;;;;;;;4.20;3.90;;;3.20;1.00;;;;;;6383390;27;20556;-56
2022/01/06 02:33:00;;;;;;;3.83;3.53;;;3.00;1.00;;;;;;6385831;27;20314;-57
2022/01/06 02:36:05;;;;;;;4.17;3.73;;;3.20;1.00;;;;;;6385340;27;20359;-55
2022/01/06 02:39:09;;;;;;;4.37;4.10;;;2.80;1.00;;;;;;6375102;27;20379;-56
2022/01/06 02:42:12;;;;;;;4.20;3.90;;;3.00;1.00;;;;;;6357318;27;20234;-57
2022/01/06 02:45:15;;;;;;;5.37;3.67;;;3.00;1.00;;;;;;6357929;27;20556;-57
2022/01/06 02:48:18;;;;;;;8.00;3.90;;;3.00;1.00;;;;;;6372027;27;20238;-57
2022/01/06 02:51:22;;;;;;;3.80;3.57;;;2.80;1.00;;;;;;6384237;27;20268;-56
2022/01/06 02:54:25;;;;;;;4.93;4.63;;;2.90;1.00;;;;;;6384641;27;20313;-58
2022/01/06 02:57:28;;;;;;;4.90;4.07;;;3.10;1.00;;;;;;6362699;27;20314;-56
2022/01/06 03:00:31;;;;;;;4.50;3.93;;;3.10;1.00;;;;;;6360201;27;20261;-57
2022/01/06 03:03:34;;;;;;;3.70;3.53;;;3.20;1.00;;;;;;6358853;27;20825;-57
2022/01/06 03:06:39;;;;;;;3.93;3.63;;;2.90;1.00;;;;;;6359644;27;20625;-58
2022/01/06 03:09:43;;;;;;;4.07;3.97;;;3.30;1.00;;;;;;6351873;27;20303;-57
2022/01/06 03:12:48;;;;;;;4.60;3.90;;;3.30;1.00;;;;;;6364155;27;20227;-57
2022/01/06 03:15:50;;;;;;;3.87;3.67;;;3.20;1.00;;;;;;6358906;28;20326;-57
2022/01/06 03:18:53;;;;;;;3.53;3.33;;;3.00;1.00;;;;;;6382112;27;20303;-55
2022/01/06 03:21:57;;;;;;;6.00;3.80;;;3.20;1.00;;;;;;6378802;27;20241;-55
2022/01/06 03:25:00;;;;;;;4.73;4.43;;;2.80;1.00;;;;;;6377656;27;20249;-56
2022/01/06 03:28:03;;;;;;;4.13;3.83;;;3.10;1.00;;;;;;6384376;27;20783;-55
2022/01/06 03:31:06;;;;;;;4.30;3.90;;;2.70;1.00;;;;;;6385120;27;20579;-56
2022/01/06 03:34:09;;;;;;;3.50;3.40;;;2.80;1.00;;;;;;6366943;27;20231;-57
2022/01/06 03:37:14;;;;;;;3.47;3.37;;;2.90;1.00;;;;;;6359152;27;20459;-57
2022/01/06 03:40:17;;;;;;;4.00;3.73;;;2.90;1.00;;;;;;6364644;27;20251;-56
2022/01/06 03:43:20;;;;;;;4.03;3.83;;;2.90;1.00;;;;;;6380491;27;20675;-56
2022/01/06 03:46:23;;;;;;;4.43;4.03;;;2.70;1.00;;;;;;6390480;27;20234;-56
2022/01/06 03:49:26;;;;;;;4.57;4.20;;;2.50;1.00;;;;;;6389212;27;20310;-57
2022/01/06 03:52:30;;;;;;;3.90;3.77;;;2.50;1.00;;;;;;6381783;27;20238;-56
2022/01/06 03:55:32;;;;;;;3.97;3.73;;;2.40;1.00;;;;;;6389490;27;20309;-56
2022/01/06 03:58:39;;;;;;;4.13;3.83;;;2.30;1.00;;;;;;6389286;27;20238;-56
2022/01/06 04:01:42;;;;;;;3.80;3.60;;;2.20;1.00;;;;;;6362519;27;20250;-58
2022/01/06 04:04:45;;;;;;;3.80;3.53;;;2.20;1.00;;;;;;6363779;27;20308;-58
2022/01/06 04:07:49;;;;;;;4.00;3.80;;;1.90;1.00;;;;;;6363485;27;20424;-57
2022/01/06 04:10:51;;;;;;;4.53;4.13;;;2.00;1.00;;;;;;6363779;27;20372;-56
2022/01/06 04:13:54;;;;;;;4.30;3.50;;;2.00;1.00;;;;;;6362908;27;20292;-56
2022/01/06 04:17:00;;;;;;;3.80;3.70;;;2.00;1.00;;;;;;6369564;27;20269;-56
2022/01/06 04:20:03;;;;;;;4.10;3.80;;;1.90;1.00;;;;;;6382349;27;20222;-56
2022/01/06 04:23:08;;;;;;;4.43;4.10;;;2.00;1.00;;;;;;6387737;27;20789;-57
2022/01/06 04:26:10;;;;;;;3.97;3.67;;;2.00;1.00;;;;;;6388025;27;20338;-56
2022/01/06 04:29:13;;;;;;;3.60;3.50;;;1.70;1.00;;;;;;6378017;27;20382;-56
2022/01/06 04:32:16;;;;;;;3.70;3.50;;;1.70;1.00;;;;;;6360004;27;20282;-56
2022/01/06 04:35:19;;;;;;;3.67;3.57;;;1.60;1.00;;;;;;6383022;27;20314;-56
2022/01/06 04:38:23;;;;;;;4.17;3.83;;;1.90;1.00;;;;;;6387822;27;20634;-56
2022/01/06 04:41:25;;;;;;;3.70;3.50;;;1.70;1.00;;;;;;6386928;27;20298;-57
2022/01/06 04:44:28;;;;;;;4.37;3.50;;;1.50;1.00;;;;;;6388543;27;20287;-56
2022/01/06 04:47:31;;;;;;;3.63;3.23;;;1.60;1.00;;;;;;6383791;27;20234;-57
2022/01/06 04:50:35;;;;;;;3.63;3.40;;;1.70;1.00;;;;;;6381006;27;20227;-57
2022/01/06 04:53:39;;;;;;;3.47;3.27;;;1.60;1.00;;;;;;6386185;27;20253;-57
2022/01/06 04:56:41;;;;;;;3.57;3.37;;;1.70;1.00;;;;;;6384684;27;20508;-57
2022/01/06 04:59:44;;;;;;;3.60;3.40;;;1.50;1.00;;;;;;6361122;27;20322;-57
2022/01/06 05:02:48;;;;;;;4.00;3.60;;;1.50;1.00;;;;;;6360437;27;20231;-57
2022/01/06 05:05:51;;;;;;;3.27;3.20;;;1.50;1.00;;;;;;6360753;27;20235;-58
2022/01/06 05:08:55;;;;;;;3.50;3.50;;;1.60;1.00;;;;;;6386514;27;20612;-57
2022/01/06 05:11:58;;;;;;;4.57;3.57;;;1.60;1.00;;;;;;6386387;27;20807;-56
2022/01/06 05:15:00;;;;;;;3.63;3.43;;;1.60;1.00;;;;;;6385682;27;20307;-55
2022/01/06 05:18:03;;;;;;;3.70;3.50;;;1.50;1.00;;;;;;6385820;27;20283;-56
2022/01/06 05:21:06;;;;;;;5.00;3.50;;;1.40;1.00;;;;;;6386039;27;20230;-56
2022/01/06 05:24:13;;;;;;;4.13;3.57;;;1.40;1.00;;;;;;6380026;27;20583;-56
2022/01/06 05:27:16;;;;;;;3.40;3.37;;;1.20;1.00;;;;;;6359657;27;20262;-57
2022/01/06 05:30:19;;;;;;;3.80;3.50;;;1.10;1.00;;;;;;6369474;27;20303;-56
2022/01/06 05:33:21;;;;;;;3.60;3.50;;;1.20;1.00;;;;;;6376875;27;20735;-56
2022/01/06 05:36:24;;;;;;;3.30;3.30;;;1.40;1.00;;;;;;6373913;27;20234;-56
2022/01/06 05:39:28;;;;;;;4.10;3.80;;;1.30;1.00;;;;;;6369727;27;20326;-52
2022/01/06 05:42:31;;;;;;;3.87;3.40;;;1.30;1.00;;;;;;6382786;27;20237;-56
2022/01/06 05:45:34;;;;;;;3.93;3.63;;;1.20;1.00;;;;;;6381417;27;20288;-56
2022/01/06 05:48:37;;;;;;;3.77;3.57;;;1.40;1.00;;;;;;6384498;27;20323;-57
2022/01/06 05:51:40;;;;;;;3.90;3.57;;;1.20;1.00;;;;;;6378489;27;20313;-56
2022/01/06 05:54:44;;;;;;;4.00;3.80;;;1.20;1.00;;;;;;6379283;27;20318;-56
2022/01/06 05:57:48;;;;;;;4.90;4.47;;;1.10;1.00;;;;;;6382813;27;20473;-56
2022/01/06 06:00:51;;;;;;;5.33;4.00;;;0.90;1.00;;;;;;6383813;27;20268;-55
2022/01/06 06:03:55;;;;;;;3.77;3.60;;;1.00;1.00;;;;;;6384938;27;20438;-56
2022/01/06 06:06:57;;;;;;;4.13;3.83;;;0.80;1.00;;;;;;6386230;27;20296;-58
2022/01/06 06:10:01;;;;;;;4.30;4.10;;;0.80;1.00;;;;;;6381939;27;20317;-56
2022/01/06 06:13:04;;;;;;;3.80;3.60;;;1.10;1.00;;;;;;6382074;27;20419;-56
2022/01/06 06:16:07;;;;;;;4.03;3.80;;;0.80;1.00;;;;;;6383688;27;20743;-56
2022/01/06 06:19:10;;;;;;;4.03;3.93;;;1.10;1.00;;;;;;6374572;27;20636;-56
2022/01/06 06:22:13;;;;;;;3.97;3.67;;;1.00;1.00;;;;;;6377944;27;20234;-56
2022/01/06 06:25:17;;;;;;;5.20;3.80;;;1.10;1.00;;;;;;6385913;27;20375;-56
2022/01/06 06:28:20;;;;;;;4.30;3.97;;;0.80;1.00;;;;;;6383821;27;20258;-57
2022/01/06 06:31:22;;;;;;;4.43;3.93;;;0.70;1.00;;;;;;6388845;27;20291;-58
2022/01/06 06:34:25;;;;;;;4.20;3.90;;;1.00;1.00;;;;;;6385809;27;20788;-58
2022/01/06 06:37:28;;;;;;;5.17;4.33;;;0.80;1.00;;;;;;6377508;27;20253;-58
2022/01/06 06:40:32;;;;;;;3.87;3.60;;;0.90;1.00;;;;;;6386516;27;20760;-57
2022/01/06 06:43:35;;;;;;;4.00;3.60;;;0.80;1.00;;;;;;6385654;27;20321;-56
2022/01/06 06:46:38;;;;;;;4.53;4.17;;;0.90;1.00;;;;;;6382189;27;20230;-58
2022/01/06 06:49:40;;;;;;;4.70;4.20;;;0.90;1.00;;;;;;6387207;27;20713;-56
2022/01/06 06:52:43;;;;;;;4.53;4.07;;;0.80;1.00;;;;;;6385451;27;20321;-58
2022/01/06 06:55:47;;;;;;;4.70;3.83;;;0.70;1.00;;;;;;6387165;27;20276;-60
2022/01/06 06:58:50;;;;;;;4.20;3.90;;;0.80;1.00;;;;;;6385988;27;20832;-58
2022/01/06 07:01:53;;;;;;;3.97;3.80;;;0.70;1.00;;;;;;6383916;27;20708;-57
2022/01/06 07:04:56;;;;;;;5.40;4.13;;;0.80;1.00;;;;;;6378384;27;20287;-55
2022/01/06 07:07:59;;;;;;;4.20;4.00;;;0.90;1.00;;;;;;6369397;27;20258;-56
2022/01/06 07:11:03;;;;;;;4.20;4.10;;;0.90;1.00;;;;;;6385493;27;20275;-57
2022/01/06 07:14:06;;;;;;;4.33;3.73;;;0.90;1.00;;;;;;6385403;27;20714;-57
2022/01/06 07:17:08;;;;;;;4.40;4.10;;;0.80;1.00;;;;;;6378158;27;20772;-56
2022/01/06 07:20:12;;;;;;;4.03;3.70;;;0.70;1.00;;;;;;6383245;27;20341;-57
2022/01/06 07:23:15;;;;;;;4.20;4.00;;;0.80;1.00;;;;;;6390977;27;20233;-57
2022/01/06 07:26:19;;;;;;;7.93;5.90;;;0.90;1.00;;;;;;6378121;27;20310;-57
2022/01/06 07:29:22;;;;;;;4.50;4.10;;;0.90;1.00;;;;;;6361529;28;20307;-57
2022/01/06 07:32:25;;;;;;;4.47;4.13;;;0.90;1.00;;;;;;6361904;28;20242;-55
2022/01/06 07:35:31;;;;;;;4.73;4.33;;;0.90;1.00;;;;;;6373771;27;20234;-58
2022/01/06 07:38:34;;;;;;;4.63;4.07;;;0.70;1.00;;;;;;6385799;27;20286;-56
2022/01/06 07:41:38;;;;;;;6.83;4.10;;;0.80;1.00;;;;;;6383942;27;20306;-56
2022/01/06 07:44:42;;;;;;;4.63;4.30;;;0.70;1.00;;;;;;6381248;27;20250;-56
2022/01/06 07:47:56;;;;;;;9.00;4.57;;;0.90;1.00;;;;;;6377691;27;20734;-56
2022/01/06 07:50:59;;;;;;;6.10;4.10;;;0.80;1.00;;;;;;6382753;27;20531;-56
2022/01/06 07:54:01;;;;;;;4.47;4.20;;;0.90;1.00;;;;;;6381740;27;20257;-55
2022/01/06 07:57:06;;;;;;;4.00;3.83;;;1.00;1.00;;;;;;6383696;27;20230;-55
2022/01/06 08:00:09;;;;;;;4.70;4.40;;;0.90;1.00;;;;;;6381140;27;20302;-55
2022/01/06 08:03:12;;;;;;;4.43;4.10;;;1.20;1.00;;;;;;6376570;27;20229;-57
2022/01/06 08:06:16;;;;;;;4.97;4.10;;;1.10;1.00;;;;;;6375578;27;20238;-56
2022/01/06 08:09:18;;;;;;;4.60;4.20;;;1.10;1.00;;;;;;6384207;27;20310;-57
2022/01/06 08:12:22;;;;;;;6.00;4.43;;;1.00;1.00;;;;;;6383104;27;20301;-57
2022/01/06 08:15:25;;;;;;;5.27;4.60;;;1.20;1.00;;;;;;6383672;27;20229;-55
2022/01/06 08:18:28;;;;;;;5.50;4.90;;;1.10;1.00;;;;;;6385082;27;20254;-56
2022/01/06 08:21:31;;;;;;;5.27;4.43;;;1.30;1.00;;;;;;6385132;27;20723;-56
2022/01/06 08:24:34;;;;;;;6.70;4.67;;;1.20;1.00;;;;;;6382498;27;20276;-56
2022/01/06 08:27:38;;;;;;;4.83;4.30;;;1.20;1.00;;;;;;6389443;27;20618;-56
2022/01/06 08:30:42;;;;;;;8.30;4.57;;;1.20;1.00;;;;;;6389216;27;20225;-57
2022/01/06 08:33:46;;;;;;;4.40;4.00;;;1.40;1.00;;;;;;6384965;27;20234;-57
2022/01/06 08:36:52;;;;;;;6.97;4.27;;;1.30;1.00;;;;;;6389825;27;20287;-56
2022/01/06 08:39:55;;;;;;;4.47;4.17;;;1.70;1.00;;;;;;6390254;27;20364;-56
2022/01/06 08:42:59;;;;;;;6.43;4.10;;;1.60;1.00;;;;;;6386997;27;20626;-55
2022/01/06 08:46:02;;;;;;;4.43;3.83;;;1.70;1.00;;;;;;6385219;27;20583;-56
2022/01/06 08:49:06;;;;;;;3.83;3.73;;;1.90;1.00;;;;;;6388367;27;20235;-57
2022/01/06 08:52:09;;;;;;;5.73;4.00;;;1.90;1.00;;;;;;6389443;27;20235;-58
2022/01/06 08:55:12;;;;;;;4.00;3.70;;;2.10;1.00;;;;;;6380696;27;20246;-58
2022/01/06 08:58:17;;;;;;;5.17;4.13;;;1.90;1.00;;;;;;6388802;27;20295;-56
2022/01/06 09:01:20;;;;;;;5.10;3.83;;;2.20;1.00;;;;;;6389121;27;20625;-56
2022/01/06 09:04:23;;;;;;;4.17;3.83;;;2.00;1.00;;;;;;6380855;27;20233;-57
2022/01/06 09:07:26;;;;;;;3.73;3.53;;;2.30;1.00;;;;;;6388108;27;20249;-59
2022/01/06 09:10:30;;;;;;;7.03;6.27;;;2.20;1.00;;;;;;6387675;27;20317;-56
2022/01/06 09:13:54;;;;;;;4.40;4.00;;;2.60;1.00;;;;;;6386951;27;20238;-56
2022/01/06 09:16:57;;;;;;;4.60;4.17;;;2.40;1.00;;;;;;6376750;27;20245;-57
2022/01/06 09:20:00;;;;;;;4.00;3.70;;;2.50;1.00;;;;;;6354495;27;20231;-53
2022/01/06 09:23:02;;;;;;;4.30;3.80;;;2.60;1.00;;;;;;6387903;27;20309;-56
2022/01/06 09:26:05;;;;;;;4.27;4.10;;;2.70;1.00;;;;;;6387953;27;20317;-55
2022/01/06 09:29:14;;;;;;;5.13;4.63;;;2.80;1.00;;;;;;6383663;27;20304;-56
2022/01/06 09:32:17;;;;;;;4.07;3.73;;;2.70;1.00;;;;;;6387823;27;20998;-56
2022/01/06 09:35:19;;;;;;;3.93;3.73;;;3.00;1.00;;;;;;6387175;27;20234;-56
2022/01/06 09:38:22;;;;;;;4.23;4.00;;;2.90;1.00;;;;;;6382709;27;20234;-57
2022/01/06 09:41:26;;;;;;;4.20;3.77;;;3.00;1.00;;;;;;6384716;27;20231;-57
2022/01/06 09:44:32;;;;;;;4.63;4.30;;;3.00;1.00;;;;;;6386204;27;20268;-56
2022/01/06 09:47:37;;;;;;;3.50;3.40;;;3.20;1.00;;;;;;6379112;27;20237;-57
2022/01/06 09:50:43;;;;;;;4.07;3.97;;;3.00;1.00;;;;;;6386449;27;20237;-59
2022/01/06 09:53:48;;;;;;;4.13;3.83;;;3.00;1.00;;;;;;6386169;27;20241;-57
2022/01/06 09:56:51;;;;;;;7.10;4.00;;;3.40;1.00;;;;;;6377425;27;20629;-56
2022/01/06 09:59:55;;;;;;;4.00;3.70;;;3.30;1.00;;;;;;6382246;27;20620;-57
2022/01/06 10:03:00;;;;;;;4.63;4.17;;;3.10;1.00;;;;;;6382580;27;20262;-57
2022/01/06 10:06:11;;;;;;;4.07;3.77;;;3.20;1.00;;;;;;6383964;27;20260;-56
2022/01/06 10:09:14;;;;;;;4.20;3.90;;;3.30;1.00;;;;;;6385849;27;20371;-56
2022/01/06 10:12:17;;;;;;;6.67;3.87;;;3.50;1.00;;;;;;6380266;27;20402;-56
2022/01/06 10:15:23;;;;;;;4.77;4.37;;;3.40;1.00;;;;;;6385876;27;20317;-57
2022/01/06 10:18:25;;;;;;;3.93;3.63;;;3.60;1.00;;;;;;6384709;27;20741;-57
2022/01/06 10:21:32;;;;;;;4.00;3.60;;;3.60;1.00;;;;;;6380180;27;20266;-56
2022/01/06 10:24:36;;;;;;;4.30;3.97;;;3.80;1.00;;;;;;6385463;27;20367;-56
2022/01/06 10:27:42;;;;;;;4.20;3.90;;;4.00;1.00;;;;;;6385199;27;20598;-58
2022/01/06 10:30:49;;;;;;;4.53;4.13;;;3.80;1.00;;;;;;6382725;27;20722;-58
2022/01/06 10:33:52;;;;;;;4.77;3.60;;;3.90;1.00;;;;;;6384550;27;20755;-54
2022/01/06 10:36:54;;;;;;;4.00;3.60;;;3.80;1.00;;;;;;6384224;27;20235;-55
2022/01/06 10:39:59;;;;;;;5.77;3.70;;;3.80;1.00;;;;;;6382612;27;20230;-55
2022/01/06 10:43:05;;;;;;;3.60;3.40;;;4.10;1.00;;;;;;6384647;27;20230;-56
2022/01/06 10:46:09;;;;;;;6.33;3.80;;;4.10;1.00;;;;;;6375109;27;20246;-59
2022/01/06 10:49:14;;;;;;;3.80;3.50;;;4.20;1.00;;;;;;6382398;27;20226;-57
2022/01/06 10:52:26;;;;;;;3.53;3.30;;;4.30;1.00;;;;;;6385008;27;20222;-56
2022/01/06 10:55:30;;;;;;;4.07;3.43;;;4.20;1.00;;;;;;6382594;27;20317;-57
2022/01/06 10:58:33;;;;;;;5.40;3.60;;;4.20;1.00;;;;;;6384261;27;20292;-58
2022/01/06 11:01:37;;;;;;;5.53;3.50;;;4.20;1.00;;;;;;6385723;27;20305;-58
2022/01/06 11:04:40;;;;;;;3.97;3.80;;;4.30;1.00;;;;;;6383050;27;20232;-58
2022/01/06 11:07:43;;;;;;;4.43;3.80;;;4.20;1.00;;;;;;6384906;27;20932;-57
2022/01/06 11:10:49;;;;;;;4.53;3.63;;;4.40;1.00;;;;;;6384798;27;20655;-57
2022/01/06 11:13:51;;;;;;;6.53;3.50;;;4.20;1.00;;;;;;6382016;27;20867;-57
2022/01/06 11:16:56;;;;;;;4.30;3.43;;;4.70;1.00;;;;;;6384386;27;20253;-56
2022/01/06 11:19:58;;;;;;;5.50;3.70;;;4.40;1.00;;;;;;6381869;27;20401;-57
2022/01/06 11:23:02;;;;;;;3.30;3.20;;;4.60;1.00;;;;;;6384617;27;20322;-57
2022/01/06 11:26:07;;;;;;;4.27;3.27;;;4.80;1.00;;;;;;6382835;27;20704;-58
2022/01/06 11:29:12;;;;;;;6.17;3.57;;;4.60;1.00;;;;;;6383768;27;20375;-57
2022/01/06 11:32:22;;;;;;;3.93;3.60;;;4.50;1.00;;;;;;6379455;27;20234;-58
2022/01/06 11:35:24;;;;;;;3.87;3.43;;;4.50;1.00;;;;;;6380536;27;20306;-58
2022/01/06 11:38:32;;;;;;;5.50;3.43;;;4.50;1.00;;;;;;6385716;27;20325;-57
2022/01/06 11:41:37;;;;;;;6.20;3.53;;;4.60;1.00;;;;;;6384200;27;20246;-57
2022/01/06 11:44:50;;;;;;;4.37;3.43;;;4.60;1.00;;;;;;6384370;27;20317;-58
2022/01/06 11:48:02;;;;;;;3.57;3.10;;;4.60;1.00;;;;;;6383145;27;20318;-59
2022/01/06 11:51:06;;;;;;;3.47;3.17;;;4.70;1.00;;;;;;6382811;27;20321;-57
2022/01/06 11:54:15;;;;;;;5.93;3.77;;;4.70;1.00;;;;;;6383042;27;20242;-58
2022/01/06 11:57:28;;;;;;;4.10;3.47;;;4.80;1.00;;;;;;6373640;27;20442;-57
2022/01/06 12:00:31;;;;;;;5.03;3.13;;;4.90;1.00;;;;;;6387398;27;20257;-58
2022/01/06 12:03:37;;;;;;;5.20;3.67;;;4.80;1.00;;;;;;6389393;27;20229;-59
2022/01/06 12:06:41;;;;;;;3.43;3.23;;;4.70;1.00;;;;;;6390965;27;20357;-56
2022/01/06 12:09:46;;;;;;;3.90;3.70;;;4.80;1.00;;;;;;6385356;27;20746;-57
2022/01/06 12:12:50;;;;;;;4.47;3.60;;;4.70;1.00;;;;;;6380334;27;20821;-58
2022/01/06 12:15:54;;;;;;;4.17;3.67;;;4.60;1.00;;;;;;6389231;27;20239;-59
2022/01/06 12:19:02;;;;;;;4.37;3.93;;;4.80;1.00;;;;;;6384011;27;20249;-58
2022/01/06 12:22:11;;;;;;;4.27;3.80;;;4.70;1.00;;;;;;6390531;27;20334;-55
2022/01/06 12:25:14;;;;;;;3.60;3.30;;;4.70;1.00;;;;;;6368801;27;20231;-59
2022/01/06 12:28:17;;;;;;;4.17;3.77;;;4.80;1.00;;;;;;6368217;27;20300;-59
2022/01/06 12:31:24;;;;;;;3.30;3.20;;;4.60;1.00;;;;;;6383557;27;20230;-58
2022/01/06 12:34:28;;;;;;;4.37;3.60;;;4.90;1.00;;;;;;6364531;27;20372;-58
2022/01/06 12:37:31;;;;;;;3.70;3.37;;;5.20;1.00;;;;;;6371005;27;20231;-59
2022/01/06 12:40:35;;;;;;;3.83;3.53;;;4.80;1.00;;;;;;6367829;27;20247;-58
2022/01/06 12:43:39;;;;;;;4.43;3.43;;;4.80;1.00;;;;;;6355409;27;20314;-59
2022/01/06 12:46:42;;;;;;;3.60;3.40;;;4.80;1.00;;;;;;6370092;27;20242;-58
2022/01/06 12:49:47;;;;;;;3.30;3.10;;;4.90;1.00;;;;;;6373022;27;20315;-57
2022/01/06 12:52:49;;;;;;;8.57;3.20;;;4.80;1.00;;;;;;6374263;27;20254;-63
2022/01/06 12:55:52;;;;;;;3.77;3.23;;;4.90;1.00;;;;;;6381210;27;20790;-58
2022/01/06 12:58:55;;;;;;;3.23;3.03;;;5.00;1.00;;;;;;6367310;27;20245;-57
2022/01/06 13:02:00;;;;;;;3.90;3.60;;;5.00;1.00;;;;;;6377248;27;20230;-56
2022/01/06 13:05:05;;;;;;;3.30;3.10;;;5.00;1.00;;;;;;6379778;27;20239;-57
2022/01/06 13:08:08;;;;;;;3.40;3.10;;;4.80;1.00;;;;;;6372511;27;20332;-57
2022/01/06 13:11:10;;;;;;;5.93;3.27;;;4.70;1.00;;;;;;6359303;27;20707;-57
2022/01/06 13:14:24;;;;;;;3.30;3.20;;;4.80;1.00;;;;;;6371711;27;20904;-57
2022/01/06 13:17:29;;;;;;;3.43;3.33;;;4.80;1.00;;;;;;6371440;27;20672;-57
2022/01/06 13:20:37;;;;;;;3.50;3.20;;;4.80;1.00;;;;;;6380455;27;20223;-56
2022/01/06 13:23:42;;;;;;;3.53;3.40;;;4.60;1.00;;;;;;6382681;27;20246;-60
2022/01/06 13:26:51;;;;;;;3.50;3.20;;;4.60;1.00;;;;;;6363165;27;20725;-58
2022/01/06 13:29:53;;;;;;;3.10;3.10;;;4.70;1.00;;;;;;6389557;27;20314;-53
2022/01/06 13:32:56;;;;;;;3.10;3.00;;;4.70;1.00;;;;;;6386219;27;20311;-55
2022/01/06 13:36:03;;;;;;;3.00;3.00;;;4.50;1.00;;;;;;6388686;27;20325;-58
2022/01/06 13:39:11;;;;;;;3.57;3.27;;;4.40;1.00;;;;;;6387843;27;20268;-57
2022/01/06 13:42:26;;;;;;;3.20;3.00;;;4.70;1.00;;;;;;6359672;27;20803;-56
2022/01/06 13:45:36;;;;;;;3.10;2.90;;;4.40;1.00;;;;;;6374066;27;20788;-57
2022/01/06 13:48:42;;;;;;;3.50;3.20;;;4.50;1.00;;;;;;6354128;27;20684;-56
2022/01/06 13:51:46;;;;;;;6.17;3.40;;;4.20;1.00;;;;;;6362891;27;20310;-58
2022/01/06 13:54:49;;;;;;;3.80;3.57;;;4.40;1.00;;;;;;6365787;27;20235;-57
2022/01/06 13:57:52;;;;;;;3.60;3.40;;;4.50;1.00;;;;;;6362857;27;20322;-56
2022/01/06 14:00:55;;;;;;;3.43;3.33;;;4.40;1.00;;;;;;6360769;27;20235;-58
2022/01/06 14:04:01;;;;;;;3.87;3.43;;;4.20;1.00;;;;;;6362244;27;20239;-56
2022/01/06 14:07:06;;;;;;;3.63;3.47;;;4.10;1.00;;;;;;6362245;27;20235;-57
2022/01/06 14:10:15;;;;;;;3.13;3.10;;;4.10;1.00;;;;;;6352689;27;20241;-58
2022/01/06 14:13:17;;;;;;;4.40;3.10;;;4.10;1.00;;;;;;6362537;27;20253;-57
2022/01/06 14:16:20;;;;;;;4.87;3.30;;;3.90;1.00;;;;;;6361675;27;20276;-56
2022/01/06 14:19:23;;;;;;;3.30;3.20;;;3.90;1.00;;;;;;6355781;27;20307;-56
2022/01/06 14:22:27;;;;;;;3.50;3.40;;;4.00;1.00;;;;;;6362801;27;20265;-56
2022/01/06 14:25:30;;;;;;;4.17;3.23;;;3.90;1.00;;;;;;6351221;27;20239;-58
2022/01/06 14:28:34;;;;;;;3.30;3.20;;;3.70;1.00;;;;;;6370602;27;20318;-56
2022/01/06 14:31:37;;;;;;;3.30;3.20;;;3.50;1.00;;;;;;6388052;27;20306;-57
2022/01/06 14:34:40;;;;;;;3.00;3.00;;;3.70;1.00;;;;;;6384983;27;20231;-58
2022/01/06 14:37:44;;;;;;;3.03;2.90;;;3.50;1.00;;;;;;6374352;27;20226;-57
2022/01/06 14:40:47;;;;;;;3.00;2.90;;;3.50;1.00;;;;;;6383569;27;20329;-56
2022/01/06 14:43:50;;;;;;;3.07;3.00;;;3.50;1.00;;;;;;6386517;27;20321;-56
2022/01/06 14:46:53;;;;;;;3.60;3.30;;;3.30;1.00;;;;;;6386992;27;20239;-57
2022/01/06 14:49:56;;;;;;;3.60;3.30;;;3.10;1.00;;;;;;6383851;27;20230;-56
2022/01/06 14:53:00;;;;;;;3.70;3.40;;;3.30;1.00;;;;;;6386521;27;20241;-57
2022/01/06 14:56:03;;;;;;;3.40;3.30;;;3.10;1.00;;;;;;6387541;27;20238;-57
2022/01/06 14:59:06;;;;;;;3.90;3.60;;;3.20;1.00;;;;;;6386305;27;20271;-56
2022/01/06 15:02:09;;;;;;;3.40;3.30;;;3.10;1.00;;;;;;6386458;27;20650;-56
2022/01/06 15:05:12;;;;;;;3.57;3.47;;;3.20;1.00;;;;;;6384092;27;20322;-56
2022/01/06 15:08:17;;;;;;;3.60;3.30;;;3.00;1.00;;;;;;6383243;27;20849;-56
2022/01/06 15:11:19;;;;;;;3.57;3.33;;;3.10;1.00;;;;;;6387044;27;20362;-56
2022/01/06 15:14:22;;;;;;;3.90;3.70;;;3.00;1.00;;;;;;6386125;27;20317;-56
2022/01/06 15:17:25;;;;;;;3.70;3.50;;;3.00;1.00;;;;;;6386470;27;20839;-58
2022/01/06 15:20:30;;;;;;;3.60;3.50;;;2.60;1.00;;;;;;6387635;27;20364;-57
2022/01/06 15:23:34;;;;;;;3.60;3.40;;;2.90;1.00;;;;;;6384617;27;20437;-56
2022/01/06 15:26:53;;;;;;;3.90;3.80;;;2.80;1.00;;;;;;6384336;27;20284;-56
2022/01/06 15:29:55;;;;;;;3.87;3.20;;;2.70;1.00;;;;;;6386434;27;20252;-58
2022/01/06 15:32:59;;;;;;;3.50;3.40;;;2.90;1.00;;;;;;6384383;27;20443;-62
2022/01/06 15:36:01;;;;;;;5.10;3.50;;;2.90;1.00;;;;;;6386714;27;20302;-58
2022/01/06 15:39:05;;;;;;;4.03;3.73;;;2.90;1.00;;;;;;6391232;27;20472;-57
2022/01/06 15:42:08;;;;;;;3.73;3.50;;;2.70;1.00;;;;;;6388617;27;20275;-57
2022/01/06 15:45:11;;;;;;;3.93;3.60;;;2.80;1.00;;;;;;6390027;27;20254;-58
2022/01/06 15:48:14;;;;;;;3.90;3.70;;;2.60;1.00;;;;;;6390399;27;20390;-57
2022/01/06 15:51:18;;;;;;;4.40;4.00;;;2.80;1.00;;;;;;6389214;27;20226;-56
2022/01/06 15:54:23;;;;;;;3.60;3.47;;;2.70;1.00;;;;;;6391129;27;20288;-56
2022/01/06 15:57:25;;;;;;;4.20;4.00;;;2.60;1.00;;;;;;6387569;27;20612;-58
2022/01/06 16:00:36;;;;;;;4.30;4.00;;;2.50;1.00;;;;;;6391737;27;20242;-57
2022/01/06 16:07:00;;;;;;;3.93;3.73;;;2.50;1.00;;;;;;6373686;27;20302;-56
2022/01/06 16:10:05;;;;;;;4.00;3.90;;;2.50;1.00;;;;;;6373210;27;20380;-56
2022/01/06 16:13:08;;;;;;;4.07;3.83;;;2.40;1.00;;;;;;6378549;27;20234;-56
2022/01/06 16:16:11;;;;;;;4.43;4.03;;;2.10;1.00;;;;;;6361014;27;20307;-57
2022/01/06 16:19:14;;;;;;;4.80;4.40;;;2.40;1.00;;;;;;6371316;27;20242;-56
2022/01/06 16:22:17;;;;;;;5.80;5.17;;;2.30;1.00;;;;;;6364498;27;20281;-58
2022/01/06 16:25:23;;;;;;;5.37;4.90;;;2.20;1.00;;;;;;6363059;27;20933;-56
2022/01/06 16:28:26;;;;;;;4.90;4.50;;;2.10;1.00;;;;;;6377824;27;20321;-58
2022/01/06 16:31:41;;;;;;;5.70;4.57;;;2.00;1.00;;;;;;6378272;27;20289;-57